Main page
METAR-TAF:

METAR-TAF

Airports :

Strother Field

Winfield / Arkansas City, Kansas, United States

latitude: 37-10-05N, longitude: 097-02-13W, elevation: 1158 ft

Current weather observation

The report was made 52 minutes ago, at 21:54 UTC
Wind 15 mph from the South with gusts up to 31 mph
Temperature 99°F
Humidity 40%
Pressure 29.86 in. Hg
Visibility: 10 miles
Clear sky

METAR: KWLD 242154Z AUTO 19013G27KT 10SM CLR 37/21 A2986 RMK AO2 PK WND 17027/2152 SLP094 T03720211

Time: 17:46 (22:46 UTC)


TAF: missing

Weather observations and forecasts of more than 4000 airports (METAR and TAF reports).

The available stations are represented by yellow and red dots on the map.

Hover mouse over dot to see the name of the station.

Then click to see weather observations and forecasts.

To change the map : click on the green buttons with a black cross to zoom in, on the green button with a dash to zoom out, or on the green arrows for adjacent maps.


METAR-TAF: